Time;durP1;ratioP1;P1;durP2;ratioP2;P2;SDS_P1;SDS_P2;PMS_P1;PMS_P2;Temp;Humidity;BMP_temperature;BMP_pressure;BME280_temperature;BME280_humidity;BME280_pressure;Samples;Min_cycle;Max_cycle;Signal;HPM_P1;HPM_P2
2023/12/22 00:00:35;;;;;;;0.77;0.77;;;6.10;99.90;;;;;;5217619;28;20033;-47
2023/12/22 00:03:08;;;;;;;0.60;0.60;;;6.10;1.00;;;;;;5194928;28;20030;-46
2023/12/22 00:05:39;;;;;;;0.52;0.52;;;6.10;1.00;;;;;;5190890;28;20034;-47
2023/12/22 00:08:13;;;;;;;1.20;0.80;;;6.10;1.00;;;;;;5191947;28;20029;-47
2023/12/22 00:10:44;;;;;;;0.70;0.70;;;6.10;99.90;;;;;;5189789;28;20037;-46
2023/12/22 00:13:18;;;;;;;0.80;0.80;;;6.10;99.90;;;;;;5184254;28;20329;-46
2023/12/22 00:15:49;;;;;;;0.47;0.47;;;6.20;1.00;;;;;;5183109;28;20048;-45
2023/12/22 00:18:28;;;;;;;0.85;0.60;;;6.20;99.90;;;;;;5197671;28;20612;-44
2023/12/22 00:21:03;;;;;;;0.75;0.60;;;6.30;99.90;;;;;;5201088;28;20033;-44
2023/12/22 00:23:35;;;;;;;1.00;0.70;;;6.30;1.00;;;;;;5201174;28;20349;-44
2023/12/22 00:26:06;;;;;;;0.73;0.68;;;6.10;1.00;;;;;;5165923;28;20025;-44
2023/12/22 00:28:38;;;;;;;0.90;0.90;;;6.10;1.00;;;;;;5187323;28;20033;-43
2023/12/22 00:31:09;;;;;;;0.77;0.77;;;6.10;1.00;;;;;;5177694;28;20554;-46
2023/12/22 00:33:43;;;;;;;1.23;0.50;;;6.20;99.90;;;;;;5180095;28;20038;-42
2023/12/22 00:36:15;;;;;;;1.67;0.65;;;6.10;1.00;;;;;;5180498;28;20033;-41
2023/12/22 00:38:48;;;;;;;1.48;0.70;;;6.10;1.00;;;;;;5163223;28;20380;-41
2023/12/22 00:41:21;;;;;;;2.00;0.90;;;6.10;1.00;;;;;;5190314;28;20029;-41
2023/12/22 00:43:54;;;;;;;1.35;0.60;;;6.20;99.90;;;;;;5183641;28;20301;-41
2023/12/22 00:46:26;;;;;;;0.80;0.70;;;6.20;99.90;;;;;;5192873;28;20029;-42
2023/12/22 00:48:57;;;;;;;1.67;0.65;;;6.20;99.90;;;;;;5203260;28;20037;-48
2023/12/22 00:51:36;;;;;;;1.10;0.80;;;6.20;99.90;;;;;;5186373;28;20033;-48
2023/12/22 00:54:07;;;;;;;1.10;0.90;;;6.30;99.90;;;;;;5202669;28;20215;-49
2023/12/22 00:56:38;;;;;;;0.68;0.60;;;6.30;99.90;;;;;;5196767;28;20049;-48
2023/12/22 00:59:09;;;;;;;0.50;0.50;;;6.30;99.90;;;;;;5182402;28;20029;-48
2023/12/22 01:01:41;;;;;;;1.85;1.35;;;6.30;99.90;;;;;;5170559;28;20041;-48
2023/12/22 01:04:15;;;;;;;0.60;0.60;;;6.30;11.40;;;;;;5192073;28;20025;-48
2023/12/22 01:06:46;;;;;;;0.50;0.50;;;6.30;53.40;;;;;;5181603;28;20319;-48
2023/12/22 01:09:19;;;;;;;0.60;0.60;;;6.40;1.00;;;;;;5193503;28;20040;-48
2023/12/22 01:11:50;;;;;;;1.02;0.68;;;6.50;1.00;;;;;;5193108;28;20025;-47
2023/12/22 01:14:22;;;;;;;0.75;0.75;;;6.50;1.00;;;;;;5190334;28;20059;-47
2023/12/22 01:16:53;;;;;;;1.67;0.85;;;6.50;1.00;;;;;;5206879;28;20036;-48
2023/12/22 01:19:26;;;;;;;0.60;0.60;;;6.50;1.00;;;;;;5208542;28;20032;-49
2023/12/22 01:21:58;;;;;;;0.83;0.83;;;6.50;1.00;;;;;;5223015;28;20025;-50
2023/12/22 01:24:29;;;;;;;0.60;0.60;;;6.60;1.00;;;;;;5199760;28;20719;-49
2023/12/22 01:27:03;;;;;;;0.50;0.50;;;6.70;1.00;;;;;;5206779;28;20035;-49
2023/12/22 01:29:39;;;;;;;1.50;0.85;;;6.70;1.00;;;;;;5205985;28;20040;-49
2023/12/22 01:32:10;;;;;;;0.60;0.60;;;6.70;1.00;;;;;;5197283;28;20060;-50
2023/12/22 01:34:47;;;;;;;0.57;0.57;;;6.80;99.90;;;;;;5203821;28;20353;-48
2023/12/22 01:37:18;;;;;;;0.50;0.50;;;6.80;99.90;;;;;;5202770;28;20039;-47
2023/12/22 01:39:49;;;;;;;2.22;0.80;;;6.80;99.90;;;;;;5205166;28;20352;-49
2023/12/22 01:42:23;;;;;;;0.70;0.70;;;6.80;99.90;;;;;;5215982;28;20043;-47
2023/12/22 01:44:59;;;;;;;0.80;0.80;;;6.90;99.90;;;;;;5204475;28;20025;-47
2023/12/22 01:47:33;;;;;;;0.98;0.90;;;6.80;99.90;;;;;;5211752;28;20037;-46
2023/12/22 01:50:10;;;;;;;3.72;0.75;;;6.70;99.90;;;;;;5224338;28;20024;-46
2023/12/22 01:52:44;;;;;;;1.05;1.05;;;6.70;99.90;;;;;;5207055;28;20329;-46
2023/12/22 01:55:21;;;;;;;1.30;0.70;;;6.70;99.90;;;;;;5215401;28;20527;-46
2023/12/22 01:57:52;;;;;;;0.73;0.73;;;6.70;99.90;;;;;;5216498;28;20032;-44
2023/12/22 02:00:26;;;;;;;1.95;0.80;;;6.70;99.90;;;;;;5206484;28;20523;-44
2023/12/22 02:03:03;;;;;;;0.70;0.70;;;6.60;99.90;;;;;;5214513;28;20213;-42
2023/12/22 02:05:34;;;;;;;0.60;0.60;;;6.70;99.90;;;;;;5211513;28;20360;-48
2023/12/22 02:08:13;;;;;;;2.40;1.65;;;6.60;99.90;;;;;;5200755;28;20040;-46
2023/12/22 02:10:45;;;;;;;1.48;0.80;;;6.60;99.90;;;;;;5216535;28;20039;-46
2023/12/22 02:13:16;;;;;;;0.40;0.40;;;6.60;99.90;;;;;;5220104;28;20036;-44
2023/12/22 02:15:49;;;;;;;1.08;0.70;;;6.70;99.90;;;;;;5208352;28;20037;-39
2023/12/22 02:18:29;;;;;;;0.75;0.75;;;6.70;99.90;;;;;;5219436;28;20031;-38
2023/12/22 02:21:01;;;;;;;1.83;0.90;;;6.70;99.90;;;;;;5221837;28;20024;-38
2023/12/22 02:23:34;;;;;;;1.27;0.70;;;6.60;99.90;;;;;;5214977;28;20484;-38
2023/12/22 02:26:24;;;;;;;0.95;0.90;;;6.70;99.90;;;;;;5193638;28;20033;-40
2023/12/22 02:29:00;;;;;;;0.77;0.75;;;6.70;99.90;;;;;;5185500;28;20213;-39
2023/12/22 02:31:47;;;;;;;1.08;0.90;;;6.70;99.90;;;;;;5207638;28;20345;-38
2023/12/22 02:34:21;;;;;;;1.65;0.65;;;6.60;99.90;;;;;;5210570;28;20226;-35
2023/12/22 02:36:56;;;;;;;0.82;0.82;;;6.60;99.90;;;;;;5216344;28;20037;-39
2023/12/22 02:39:30;;;;;;;1.92;1.17;;;6.50;99.90;;;;;;5217832;28;20025;-35
2023/12/22 02:42:06;;;;;;;0.80;0.80;;;6.40;99.90;;;;;;5210929;28;20024;-34
2023/12/22 02:44:39;;;;;;;0.95;0.70;;;6.40;99.90;;;;;;5200503;28;20064;-31
2023/12/22 02:47:13;;;;;;;0.88;0.70;;;6.30;99.90;;;;;;5207192;28;20029;-31
2023/12/22 02:49:44;;;;;;;2.00;1.10;;;6.20;99.90;;;;;;5228815;28;20044;-31
2023/12/22 02:52:16;;;;;;;0.60;0.60;;;6.10;99.90;;;;;;5196815;28;20380;-32
2023/12/22 02:54:52;;;;;;;0.80;0.80;;;6.10;99.90;;;;;;5213603;28;20256;-32
2023/12/22 02:57:27;;;;;;;1.98;0.65;;;6.00;99.90;;;;;;5205458;28;20037;-31
2023/12/22 02:59:59;;;;;;;1.75;0.82;;;6.00;99.90;;;;;;5214637;28;20447;-31
2023/12/22 03:02:30;;;;;;;1.05;0.80;;;6.10;99.90;;;;;;5211076;28;20040;-32
2023/12/22 03:05:01;;;;;;;0.63;0.63;;;6.00;99.90;;;;;;5215150;28;20033;-31
2023/12/22 03:07:32;;;;;;;3.92;0.80;;;6.00;99.90;;;;;;5215785;28;20037;-32
2023/12/22 03:10:06;;;;;;;0.90;0.57;;;6.00;99.90;;;;;;5219128;28;20036;-32
2023/12/22 03:12:40;;;;;;;2.60;0.70;;;6.00;99.90;;;;;;5213099;28;20462;-32
2023/12/22 03:15:11;;;;;;;1.08;1.08;;;5.90;99.90;;;;;;5199359;28;20043;-32
2023/12/22 03:17:42;;;;;;;2.22;1.15;;;5.80;99.90;;;;;;5208704;28;20218;-32
2023/12/22 03:20:17;;;;;;;0.68;0.68;;;5.80;99.90;;;;;;5208999;28;20033;-32
2023/12/22 03:22:48;;;;;;;1.23;0.85;;;5.80;99.90;;;;;;5207086;28;20436;-32
2023/12/22 03:25:20;;;;;;;4.78;0.70;;;5.80;99.90;;;;;;5209402;28;20040;-32
2023/12/22 03:27:51;;;;;;;1.95;1.00;;;5.70;99.90;;;;;;5209715;28;20033;-32
2023/12/22 03:30:26;;;;;;;3.22;0.80;;;5.60;99.90;;;;;;5206500;28;20312;-32
2023/12/22 03:32:57;;;;;;;;;;;5.50;99.90;;;;;;5185090;28;20040;-31
2023/12/22 03:35:30;;;;;;;1.08;0.98;;;5.50;99.90;;;;;;5207248;28;19913;-35
2023/12/22 03:38:04;;;;;;;0.70;0.70;;;5.40;99.90;;;;;;5216835;28;20033;-32
2023/12/22 03:40:38;;;;;;;1.35;0.77;;;5.40;99.90;;;;;;5213960;28;20040;-30
2023/12/22 03:43:09;;;;;;;0.95;0.95;;;5.30;99.90;;;;;;5208982;28;20037;-33
2023/12/22 03:45:43;;;;;;;0.93;0.70;;;5.30;99.90;;;;;;5203649;28;20021;-31
2023/12/22 03:48:18;;;;;;;0.70;0.70;;;5.30;99.90;;;;;;5215397;28;20024;-31
2023/12/22 03:50:50;;;;;;;0.65;0.60;;;5.30;99.90;;;;;;5210227;28;20020;-30
2023/12/22 03:53:27;;;;;;;1.55;0.88;;;5.40;99.90;;;;;;5193159;28;20028;-32
2023/12/22 03:56:03;;;;;;;2.22;1.10;;;5.40;99.90;;;;;;5206155;28;20037;-32
2023/12/22 03:58:36;;;;;;;1.08;0.77;;;5.40;1.00;;;;;;5202810;28;20322;-30
2023/12/22 04:01:12;;;;;;;2.80;1.08;;;5.30;1.00;;;;;;5199813;28;20032;-31
2023/12/22 04:03:44;;;;;;;0.60;0.60;;;5.30;1.00;;;;;;5205982;28;20025;-31
2023/12/22 04:06:15;;;;;;;0.88;0.77;;;5.20;1.00;;;;;;5211169;28;20040;-31
2023/12/22 04:08:47;;;;;;;0.63;0.63;;;5.20;1.00;;;;;;5203929;28;20060;-31
2023/12/22 04:11:18;;;;;;;0.90;0.90;;;5.20;1.00;;;;;;5195257;28;20037;-31
2023/12/22 04:13:49;;;;;;;0.90;0.90;;;5.20;1.00;;;;;;5216658;28;20336;-31
2023/12/22 04:16:20;;;;;;;2.83;0.85;;;5.20;1.00;;;;;;5210938;28;20125;-31
2023/12/22 04:18:51;;;;;;;1.38;1.17;;;5.20;1.00;;;;;;5208714;28;20037;-31
2023/12/22 04:21:25;;;;;;;0.60;0.60;;;5.20;99.90;;;;;;5195102;28;20025;-31
2023/12/22 04:24:00;;;;;;;1.38;1.27;;;5.20;99.90;;;;;;5191661;28;20649;-31
2023/12/22 04:26:32;;;;;;;1.55;0.90;;;5.30;99.90;;;;;;5197153;28;20037;-32
2023/12/22 04:29:05;;;;;;;0.98;0.98;;;5.30;99.90;;;;;;5207211;28;20339;-32
2023/12/22 04:31:36;;;;;;;0.82;0.70;;;5.40;99.90;;;;;;5205813;28;20041;-32
2023/12/22 04:34:08;;;;;;;0.88;0.80;;;5.50;99.90;;;;;;5210081;28;20029;-32
2023/12/22 04:36:42;;;;;;;2.60;0.98;;;5.60;99.90;;;;;;5216738;28;20352;-32
2023/12/22 04:39:15;;;;;;;1.05;1.00;;;5.60;99.90;;;;;;5196924;28;20147;-32
2023/12/22 04:41:46;;;;;;;0.63;0.63;;;5.70;99.90;;;;;;5208316;28;20369;-32
2023/12/22 04:44:17;;;;;;;1.73;1.10;;;5.70;99.90;;;;;;5208879;28;20308;-31
2023/12/22 04:46:49;;;;;;;2.88;0.90;;;5.80;99.90;;;;;;5202137;28;21893;-31
2023/12/22 04:49:20;;;;;;;2.58;1.13;;;5.90;99.90;;;;;;5196270;28;20044;-31
2023/12/22 04:51:51;;;;;;;2.15;0.70;;;5.90;99.90;;;;;;5189608;28;20261;-31
2023/12/22 04:54:23;;;;;;;1.52;1.17;;;5.90;99.90;;;;;;5207527;28;20039;-32
2023/12/22 04:56:56;;;;;;;0.57;0.57;;;6.00;99.90;;;;;;5216168;28;20041;-32
2023/12/22 04:59:30;;;;;;;2.95;1.52;;;6.00;99.90;;;;;;5212812;28;20033;-34
2023/12/22 05:02:06;;;;;;;1.88;0.80;;;6.00;99.90;;;;;;5195002;28;20660;-31
2023/12/22 05:04:38;;;;;;;1.10;0.93;;;6.00;99.90;;;;;;5208256;28;20045;-31
2023/12/22 05:07:10;;;;;;;1.00;0.88;;;6.00;99.90;;;;;;5199815;28;20037;-31
2023/12/22 05:09:44;;;;;;;1.77;0.90;;;6.00;77.70;;;;;;5207065;28;20030;-31
2023/12/22 05:12:15;;;;;;;0.85;0.82;;;6.00;1.00;;;;;;5205617;28;20225;-31
2023/12/22 05:14:49;;;;;;;2.25;1.05;;;6.00;1.00;;;;;;5187944;28;20041;-32
2023/12/22 05:17:25;;;;;;;2.78;1.08;;;6.00;1.00;;;;;;5199638;28;20289;-31
2023/12/22 05:20:00;;;;;;;0.90;0.90;;;6.10;1.00;;;;;;5205457;28;20033;-31
2023/12/22 05:22:34;;;;;;;;;;;6.10;1.00;;;;;;5170917;28;20519;-31
2023/12/22 05:25:06;;;;;;;2.40;1.02;;;6.00;1.00;;;;;;5206945;28;19927;-31
2023/12/22 05:27:38;;;;;;;2.50;0.93;;;5.90;1.00;;;;;;5229789;28;20025;-32
2023/12/22 05:30:13;;;;;;;1.95;0.95;;;5.90;1.00;;;;;;5213317;28;20013;-32
2023/12/22 05:32:44;;;;;;;1.02;0.90;;;5.90;1.00;;;;;;5192797;28;20028;-31
2023/12/22 05:35:18;;;;;;;1.48;0.90;;;5.80;1.00;;;;;;5211825;28;20198;-31
2023/12/22 05:37:55;;;;;;;4.28;1.23;;;5.80;1.00;;;;;;5204686;28;20052;-31
2023/12/22 05:40:29;;;;;;;4.35;0.80;;;5.80;1.00;;;;;;5210133;28;20025;-31
2023/12/22 05:43:00;;;;;;;1.50;0.73;;;5.80;1.00;;;;;;5197212;28;20037;-30
2023/12/22 05:45:34;;;;;;;1.67;0.85;;;5.70;1.00;;;;;;5194547;28;20041;-30
2023/12/22 05:48:08;;;;;;;0.80;0.80;;;5.70;1.00;;;;;;5198538;28;20021;-30
2023/12/22 05:50:45;;;;;;;2.22;0.80;;;5.70;1.00;;;;;;5194213;28;20037;-32
2023/12/22 05:53:16;;;;;;;0.88;0.88;;;5.60;1.00;;;;;;5209115;28;20374;-32
2023/12/22 05:55:49;;;;;;;2.42;1.27;;;5.60;1.00;;;;;;5203525;28;20465;-32
2023/12/22 05:58:20;;;;;;;5.47;1.00;;;5.50;1.00;;;;;;5211641;28;20252;-33
2023/12/22 06:00:54;;;;;;;3.35;1.10;;;5.50;1.00;;;;;;5194714;28;20025;-32
2023/12/22 06:03:25;;;;;;;4.90;1.13;;;5.40;1.00;;;;;;5186129;28;20033;-32
2023/12/22 06:05:56;;;;;;;2.05;1.15;;;5.40;1.00;;;;;;5213406;28;20029;-32
2023/12/22 06:08:28;;;;;;;2.78;1.40;;;5.50;1.00;;;;;;5214991;28;20337;-32
2023/12/22 06:11:01;;;;;;;2.50;0.98;;;5.40;1.00;;;;;;5213934;28;20024;-32
2023/12/22 06:13:35;;;;;;;3.50;1.30;;;5.40;1.00;;;;;;5198818;28;20029;-32
2023/12/22 06:16:06;;;;;;;1.95;1.23;;;5.30;1.00;;;;;;5197620;28;20049;-31
2023/12/22 06:18:37;;;;;;;2.38;0.95;;;5.30;1.00;;;;;;5203516;28;20170;-31
2023/12/22 06:21:15;;;;;;;0.80;0.80;;;5.30;1.00;;;;;;5194516;28;20369;-32
2023/12/22 06:23:46;;;;;;;0.75;0.75;;;5.30;1.00;;;;;;5199918;28;20166;-31
2023/12/22 06:26:18;;;;;;;0.63;0.63;;;5.20;15.00;;;;;;5214681;28;20240;-31
2023/12/22 06:28:52;;;;;;;3.58;0.80;;;5.10;57.00;;;;;;5218583;28;20032;-31
2023/12/22 06:31:23;;;;;;;0.70;0.63;;;5.00;96.70;;;;;;5205942;28;20399;-31
2023/12/22 06:34:01;;;;;;;0.80;0.80;;;5.00;99.90;;;;;;5196850;28;20045;-32
2023/12/22 06:36:33;;;;;;;0.68;0.68;;;4.90;99.90;;;;;;5212190;28;20169;-32
2023/12/22 06:39:04;;;;;;;1.52;0.80;;;4.80;99.90;;;;;;5217397;28;20035;-30
2023/12/22 06:41:37;;;;;;;1.95;0.60;;;4.80;99.90;;;;;;5212356;28;20104;-32
2023/12/22 06:44:10;;;;;;;0.70;0.70;;;4.80;99.90;;;;;;5182169;28;20041;-33
2023/12/22 06:46:43;;;;;;;0.95;0.70;;;4.90;99.90;;;;;;5189751;28;20033;-31
2023/12/22 06:49:20;;;;;;;2.78;1.05;;;4.90;99.90;;;;;;5211669;28;20029;-31
2023/12/22 06:51:52;;;;;;;2.15;0.93;;;4.90;99.90;;;;;;5217848;28;20215;-31
2023/12/22 06:54:26;;;;;;;1.05;0.63;;;4.80;99.90;;;;;;5218983;28;20317;-31
2023/12/22 06:57:01;;;;;;;1.20;1.10;;;4.80;99.90;;;;;;5201456;28;20262;-35
2023/12/22 06:59:35;;;;;;;3.53;0.77;;;4.80;99.90;;;;;;5189098;28;20036;-32
2023/12/22 07:02:09;;;;;;;1.02;0.90;;;4.80;99.90;;;;;;5206781;28;20403;-32
2023/12/22 07:05:08;;;;;;;0.70;0.70;;;4.90;99.90;;;;;;5211776;28;20256;-32
2023/12/22 07:07:42;;;;;;;0.88;0.82;;;4.90;99.90;;;;;;5213042;28;20048;-31
2023/12/22 07:10:13;;;;;;;1.27;1.00;;;4.90;99.90;;;;;;5204870;28;20033;-31
2023/12/22 07:12:45;;;;;;;1.63;0.85;;;4.90;99.90;;;;;;5213040;28;20063;-31
2023/12/22 07:15:17;;;;;;;0.80;0.80;;;4.90;99.90;;;;;;5200206;28;20261;-31
2023/12/22 07:17:50;;;;;;;5.55;1.40;;;5.00;99.90;;;;;;5197057;28;20057;-31
2023/12/22 07:20:21;;;;;;;2.72;0.80;;;5.10;99.90;;;;;;5189772;28;20405;-31
2023/12/22 07:22:53;;;;;;;0.60;0.60;;;5.10;99.90;;;;;;5160979;28;20056;-32
2023/12/22 07:25:25;;;;;;;0.70;0.70;;;5.20;99.90;;;;;;5187124;28;20025;-31
2023/12/22 07:27:58;;;;;;;1.13;0.70;;;5.20;99.90;;;;;;5186967;28;20029;-31
2023/12/22 07:30:32;;;;;;;0.63;0.63;;;5.10;99.90;;;;;;5180337;28;20291;-36
2023/12/22 07:33:04;;;;;;;0.90;0.90;;;5.10;99.90;;;;;;5182496;28;20041;-31
2023/12/22 07:35:37;;;;;;;3.05;0.95;;;5.10;99.90;;;;;;5206277;28;20040;-32
2023/12/22 07:38:11;;;;;;;1.27;1.00;;;5.10;99.90;;;;;;5211338;28;20332;-32
2023/12/22 07:40:45;;;;;;;2.42;1.10;;;5.20;99.90;;;;;;5192060;28;20045;-31
2023/12/22 07:43:16;;;;;;;0.82;0.82;;;5.30;99.90;;;;;;5189317;28;20369;-31
2023/12/22 07:45:47;;;;;;;0.80;0.80;;;5.30;99.90;;;;;;5180242;28;20045;-31
2023/12/22 07:48:24;;;;;;;2.25;1.13;;;5.40;99.90;;;;;;5193686;28;20347;-31
2023/12/22 07:50:55;;;;;;;0.80;0.80;;;5.40;99.90;;;;;;5210354;28;20033;-31
2023/12/22 07:53:31;;;;;;;1.95;0.98;;;5.40;99.90;;;;;;5216799;28;20032;-31
2023/12/22 07:56:07;;;;;;;0.80;0.80;;;5.40;99.90;;;;;;5210355;28;20033;-31
2023/12/22 07:58:39;;;;;;;1.00;0.70;;;5.50;99.90;;;;;;5190627;28;20032;-31
2023/12/22 08:01:10;;;;;;;0.60;0.60;;;5.60;99.90;;;;;;5181820;28;20068;-31
2023/12/22 08:03:44;;;;;;;1.08;0.98;;;5.60;99.90;;;;;;5198005;28;20025;-31
2023/12/22 08:06:15;;;;;;;0.60;0.60;;;5.60;99.90;;;;;;5204999;28;20029;-31
2023/12/22 08:08:46;;;;;;;0.88;0.88;;;5.70;99.90;;;;;;5217878;28;20048;-31
2023/12/22 08:11:20;;;;;;;0.90;0.90;;;5.70;99.60;;;;;;5211175;28;20026;-31
2023/12/22 08:13:56;;;;;;;0.90;0.90;;;5.70;99.90;;;;;;5204036;28;20233;-30
2023/12/22 08:16:32;;;;;;;1.63;0.82;;;5.70;87.70;;;;;;5212285;28;20574;-31
2023/12/22 08:19:06;;;;;;;0.80;0.80;;;5.70;99.90;;;;;;5218474;28;20369;-31
2023/12/22 08:21:37;;;;;;;0.70;0.70;;;5.70;99.40;;;;;;5195001;28;20044;-33
2023/12/22 08:24:11;;;;;;;0.80;0.80;;;5.70;74.10;;;;;;5205524;28;20033;-31
2023/12/22 08:26:50;;;;;;;1.50;0.75;;;5.70;99.60;;;;;;5169068;28;20334;-31
2023/12/22 08:29:23;;;;;;;0.90;0.60;;;5.70;99.90;;;;;;5207864;28;20045;-33
2023/12/22 08:31:55;;;;;;;0.70;0.70;;;5.70;79.50;;;;;;5201945;28;20441;-30
2023/12/22 08:34:27;;;;;;;1.50;0.90;;;5.70;97.10;;;;;;5201363;28;20333;-30
2023/12/22 08:36:58;;;;;;;1.58;0.95;;;5.80;68.20;;;;;;5213190;28;20039;-31
2023/12/22 08:39:29;;;;;;;3.70;1.00;;;5.80;59.10;;;;;;5216513;28;20029;-30
2023/12/22 08:42:00;;;;;;;0.95;0.90;;;5.80;42.60;;;;;;5208185;28;20036;-30
2023/12/22 08:44:32;;;;;;;0.60;0.60;;;5.70;39.20;;;;;;5193255;28;20033;-30
2023/12/22 08:47:05;;;;;;;0.73;0.70;;;5.70;41.60;;;;;;5188602;28;20029;-32
2023/12/22 08:49:40;;;;;;;1.85;0.90;;;5.80;65.30;;;;;;5210998;28;20213;-32
2023/12/22 08:52:11;;;;;;;0.90;0.90;;;6.00;79.60;;;;;;5190288;28;20730;-33
2023/12/22 08:54:42;;;;;;;2.47;0.90;;;6.20;99.90;;;;;;5207315;28;20036;-31
2023/12/22 08:57:13;;;;;;;1.02;0.90;;;6.30;67.70;;;;;;5187246;28;20033;-32
2023/12/22 08:59:47;;;;;;;0.88;0.88;;;6.30;88.00;;;;;;5196742;28;20257;-32
2023/12/22 09:02:19;;;;;;;1.05;0.80;;;6.20;26.30;;;;;;5202374;28;20200;-32
2023/12/22 09:04:52;;;;;;;2.40;0.93;;;6.20;11.40;;;;;;5199908;28;20111;-32
2023/12/22 09:07:24;;;;;;;0.90;0.90;;;6.30;2.40;;;;;;5202871;28;20047;-32
2023/12/22 09:09:58;;;;;;;0.93;0.90;;;6.30;1.00;;;;;;5194745;28;20330;-32
2023/12/22 09:12:32;;;;;;;4.25;1.00;;;6.30;3.10;;;;;;5207897;28;20473;-31
2023/12/22 09:15:04;;;;;;;0.80;0.80;;;6.30;1.00;;;;;;5211528;28;20033;-31
2023/12/22 09:17:35;;;;;;;1.30;0.75;;;6.40;1.00;;;;;;5181424;28;20210;-32
2023/12/22 09:20:07;;;;;;;1.13;0.77;;;6.50;1.00;;;;;;5189430;28;20258;-32
2023/12/22 09:22:41;;;;;;;1.52;0.60;;;6.60;1.00;;;;;;5209603;28;20249;-32
2023/12/22 09:25:13;;;;;;;0.93;0.90;;;6.60;1.00;;;;;;5213054;28;20257;-32
2023/12/22 09:27:46;;;;;;;0.88;0.80;;;6.60;1.00;;;;;;5196579;28;20041;-35
2023/12/22 09:30:17;;;;;;;0.70;0.70;;;6.40;1.00;;;;;;5206133;28;20048;-31
2023/12/22 09:32:49;;;;;;;0.60;0.60;;;6.30;1.00;;;;;;5199935;28;20271;-31
2023/12/22 09:35:24;;;;;;;0.88;0.85;;;6.20;1.00;;;;;;5203202;28;20033;-31
2023/12/22 09:37:55;;;;;;;2.17;0.82;;;6.40;1.00;;;;;;5163214;28;20776;-32
2023/12/22 09:40:34;;;;;;;0.98;0.73;;;6.40;1.00;;;;;;5193087;28;20420;-32
2023/12/22 09:43:07;;;;;;;0.80;0.80;;;6.60;1.00;;;;;;5202506;28;20044;-32
2023/12/22 09:45:39;;;;;;;1.67;0.63;;;6.80;1.00;;;;;;5189904;28;20034;-32
2023/12/22 09:48:15;;;;;;;2.13;0.98;;;6.70;1.00;;;;;;5206251;28;20031;-32
2023/12/22 09:50:52;;;;;;;2.50;2.30;;;6.70;1.00;;;;;;5219055;28;20232;-32
2023/12/22 09:53:26;;;;;;;0.90;0.90;;;6.80;1.00;;;;;;5211637;28;20233;-32
2023/12/22 09:55:59;;;;;;;5.47;0.90;;;6.80;1.00;;;;;;5192533;28;20039;-31
2023/12/22 09:58:32;;;;;;;0.80;0.77;;;6.60;1.00;;;;;;5200764;28;20301;-32
2023/12/22 10:01:07;;;;;;;1.27;0.80;;;6.50;1.00;;;;;;5207498;28;20273;-31
2023/12/22 10:03:42;;;;;;;0.70;0.70;;;6.40;1.00;;;;;;5195912;28;20039;-31
2023/12/22 10:06:15;;;;;;;1.27;0.82;;;6.40;1.00;;;;;;5195050;28;20021;-31
2023/12/22 10:08:51;;;;;;;0.77;0.77;;;6.50;1.00;;;;;;5198549;28;20028;-31
2023/12/22 10:11:24;;;;;;;2.25;0.60;;;6.50;1.00;;;;;;5204207;28;20025;-32
2023/12/22 10:13:56;;;;;;;1.20;0.77;;;6.40;1.00;;;;;;5201895;28;20190;-32
2023/12/22 10:16:27;;;;;;;0.63;0.63;;;6.40;1.00;;;;;;5181422;28;20044;-31
2023/12/22 10:19:05;;;;;;;0.70;0.70;;;6.40;1.00;;;;;;5217091;28;20054;-31
2023/12/22 10:21:36;;;;;;;0.95;0.70;;;6.40;1.00;;;;;;5203102;28;20076;-31
2023/12/22 10:24:13;;;;;;;1.50;0.68;;;6.60;1.00;;;;;;5190898;28;20034;-31
2023/12/22 10:26:46;;;;;;;0.63;0.63;;;6.70;1.00;;;;;;5199703;28;20033;-32
2023/12/22 10:29:17;;;;;;;0.68;0.55;;;6.60;1.00;;;;;;5211380;28;20237;-31
2023/12/22 10:31:53;;;;;;;2.40;0.80;;;6.60;1.00;;;;;;5205007;28;20412;-32
2023/12/22 10:34:26;;;;;;;2.95;0.80;;;6.70;1.00;;;;;;5196624;28;20033;-32
2023/12/22 10:37:02;;;;;;;1.85;1.20;;;6.50;1.00;;;;;;5195384;28;20039;-31
2023/12/22 10:39:37;;;;;;;0.80;0.80;;;7.40;1.00;;;;;;5205835;28;20049;-31
2023/12/22 10:42:09;;;;;;;0.60;0.60;;;8.30;1.00;;;;;;5212413;28;20021;-31
2023/12/22 10:44:41;;;;;;;1.00;0.70;;;9.30;1.00;;;;;;5189312;28;20040;-31
2023/12/22 10:47:13;;;;;;;0.80;0.80;;;9.20;1.00;;;;;;5180685;28;20030;-30
2023/12/22 10:49:47;;;;;;;2.08;0.70;;;9.20;1.00;;;;;;5204443;28;20218;-31
2023/12/22 10:52:21;;;;;;;4.07;2.17;;;9.20;1.00;;;;;;5213050;28;20035;-33
2023/12/22 10:54:52;;;;;;;16.13;6.53;;;8.40;1.00;;;;;;5207358;28;20037;-30
2023/12/22 10:57:24;;;;;;;11.68;4.82;;;7.60;1.00;;;;;;5200020;28;20040;-30
2023/12/22 10:59:59;;;;;;;1.00;1.00;;;7.70;1.00;;;;;;5171921;28;20029;-33
2023/12/22 11:02:32;;;;;;;1.13;1.02;;;7.80;1.00;;;;;;5194901;28;20313;-32
2023/12/22 11:05:05;;;;;;;1.25;1.15;;;8.40;1.00;;;;;;5191556;28;20021;-31
2023/12/22 11:07:37;;;;;;;2.38;1.08;;;8.70;1.00;;;;;;5182055;28;20029;-32
2023/12/22 11:10:11;;;;;;;1.88;0.90;;;8.40;1.00;;;;;;5188707;28;20041;-32
2023/12/22 11:12:47;;;;;;;1.90;1.00;;;8.20;1.00;;;;;;5193384;28;20037;-32
2023/12/22 11:15:19;;;;;;;1.50;1.40;;;8.50;1.00;;;;;;5196378;28;20034;-31
2023/12/22 11:17:55;;;;;;;1.50;0.90;;;8.70;1.00;;;;;;5204829;28;20298;-32
2023/12/22 11:20:32;;;;;;;2.47;1.50;;;8.90;1.00;;;;;;5213358;28;20032;-30
2023/12/22 11:23:05;;;;;;;0.77;0.77;;;8.80;1.00;;;;;;5205398;28;20029;-31
2023/12/22 11:25:37;;;;;;;1.85;1.70;;;7.70;1.00;;;;;;5207010;28;20059;-32
2023/12/22 11:28:11;;;;;;;1.00;0.90;;;7.00;1.00;;;;;;5180447;28;20032;-32
2023/12/22 11:30:52;;;;;;;0.93;0.85;;;6.60;1.00;;;;;;5202724;28;20021;-31
2023/12/22 11:33:28;;;;;;;0.65;0.65;;;6.30;1.00;;;;;;5205167;28;20281;-32
2023/12/22 11:36:01;;;;;;;1.38;0.90;;;5.90;1.00;;;;;;5232559;28;20033;-32
2023/12/22 11:38:38;;;;;;;0.90;0.90;;;5.10;1.00;;;;;;5177125;28;20037;-43
2023/12/22 11:41:13;;;;;;;0.85;0.63;;;4.60;1.00;;;;;;5212769;28;20033;-49
2023/12/22 11:43:48;;;;;;;1.17;0.90;;;4.20;99.90;;;;;;5208853;28;20037;-49
2023/12/22 11:46:23;;;;;;;0.60;0.60;;;4.10;1.00;;;;;;5215376;28;20348;-49
2023/12/22 11:48:56;;;;;;;0.70;0.70;;;4.00;1.00;;;;;;5200169;28;20044;-48
2023/12/22 11:51:36;;;;;;;0.60;0.60;;;4.10;99.90;;;;;;5205560;28;20057;-49
2023/12/22 11:55:03;;;;;;;1.38;0.70;;;4.70;99.90;;;;;;5203029;28;20044;-48
2023/12/22 11:57:39;;;;;;;2.35;0.75;;;5.00;99.90;;;;;;5150758;28;20056;-49
2023/12/22 12:00:34;;;;;;;0.80;0.80;;;5.20;99.90;;;;;;5167997;28;20041;-49
2023/12/22 12:03:08;;;;;;;0.95;0.90;;;6.10;1.00;;;;;;5167639;28;20025;-49
2023/12/22 12:05:42;;;;;;;0.82;0.82;;;6.90;99.90;;;;;;5175943;28;20033;-49
2023/12/22 12:08:14;;;;;;;1.02;0.93;;;7.00;1.00;;;;;;5175081;28;20034;-49
2023/12/22 12:10:55;;;;;;;0.70;0.70;;;7.30;1.00;;;;;;5174239;28;20044;-49
2023/12/22 12:13:31;;;;;;;0.80;0.80;;;7.50;1.00;;;;;;5172287;28;20038;-48
2023/12/22 12:16:06;;;;;;;0.70;0.70;;;7.30;1.00;;;;;;5153055;28;20269;-48
2023/12/22 12:18:38;;;;;;;0.80;0.57;;;6.70;1.00;;;;;;5169548;28;20026;-48
2023/12/22 12:21:15;;;;;;;0.73;0.70;;;6.20;1.00;;;;;;5144597;28;20050;-48
2023/12/22 12:23:49;;;;;;;0.60;0.60;;;6.00;1.00;;;;;;5154608;28;20343;-47
2023/12/22 12:26:21;;;;;;;;;;;6.00;1.00;;;;;;5168860;28;20042;-47
2023/12/22 12:28:52;;;;;;;1.10;1.00;;;6.00;1.00;;;;;;5168208;28;19913;-47
2023/12/22 12:31:39;;;;;;;2.58;1.00;;;6.00;1.00;;;;;;5161713;28;20030;-46
2023/12/22 12:34:11;;;;;;;0.85;0.77;;;6.00;99.90;;;;;;5199809;28;20046;-45
2023/12/22 12:36:45;;;;;;;0.82;0.82;;;6.10;99.90;;;;;;5168564;28;20037;-45
2023/12/22 12:39:20;;;;;;;4.25;0.93;;;6.10;99.90;;;;;;5209941;28;20044;-46
2023/12/22 12:41:54;;;;;;;0.80;0.80;;;6.10;99.90;;;;;;5202929;28;20093;-48
2023/12/22 12:44:29;;;;;;;0.68;0.68;;;6.20;99.90;;;;;;5201189;28;20195;-45
2023/12/22 12:47:14;;;;;;;0.80;0.80;;;6.10;99.90;;;;;;5184469;28;20225;-44
2023/12/22 12:49:45;;;;;;;1.27;0.82;;;6.10;99.90;;;;;;5199277;28;20040;-43
2023/12/22 12:52:22;;;;;;;0.40;0.40;;;6.10;99.90;;;;;;5199240;28;20032;-47
2023/12/22 12:54:53;;;;;;;0.50;0.50;;;6.10;99.90;;;;;;5201395;28;20332;-47
2023/12/22 12:57:30;;;;;;;0.60;0.60;;;6.10;99.90;;;;;;5197525;28;20041;-48
2023/12/22 13:00:01;;;;;;;1.00;1.00;;;6.10;99.90;;;;;;5197354;28;20223;-45
2023/12/22 13:02:36;;;;;;;0.77;0.77;;;6.00;99.90;;;;;;5199238;28;20647;-44
2023/12/22 13:05:11;;;;;;;0.57;0.57;;;6.00;99.90;;;;;;5195217;28;20317;-43
2023/12/22 13:07:44;;;;;;;0.90;0.90;;;6.00;99.90;;;;;;5202947;28;20348;-42
2023/12/22 13:10:32;;;;;;;2.38;0.70;;;6.00;99.90;;;;;;5205046;28;20119;-43
2023/12/22 13:13:03;;;;;;;1.20;0.88;;;6.00;99.90;;;;;;5156732;28;20053;-43
2023/12/22 13:15:34;;;;;;;0.73;0.73;;;6.00;99.90;;;;;;5184982;28;20253;-43
2023/12/22 13:18:06;;;;;;;1.00;0.85;;;6.00;99.90;;;;;;5189795;28;20072;-43
2023/12/22 13:20:39;;;;;;;2.72;1.05;;;6.00;99.90;;;;;;5171278;28;21426;-43
2023/12/22 13:23:13;;;;;;;1.52;1.00;;;6.00;99.90;;;;;;5185391;28;20304;-43
2023/12/22 13:25:47;;;;;;;0.90;0.90;;;6.00;99.90;;;;;;5173862;28;20036;-43
2023/12/22 13:28:28;;;;;;;1.02;0.95;;;6.00;99.90;;;;;;5188583;28;20014;-43
2023/12/22 13:31:02;;;;;;;3.10;0.90;;;6.00;99.90;;;;;;5192536;28;20036;-44
2023/12/22 13:33:34;;;;;;;1.85;1.02;;;6.00;99.90;;;;;;5195052;28;20358;-42
2023/12/22 13:36:08;;;;;;;2.15;0.90;;;6.00;99.90;;;;;;5197712;28;20426;-42